sensor_id;sensor_type;location;lat;lon;timestamp;P1;durP1;ratioP1;P2;durP2;ratioP2
31091;SDS011;67728;53.122;12.776;2023-03-14T00:00:32;323.25;;;69.80;;
31091;SDS011;67728;53.122;12.776;2023-03-14T00:02:03;321.50;;;69.57;;
31091;SDS011;67728;53.122;12.776;2023-03-14T00:03:35;320.98;;;69.05;;
31091;SDS011;67728;53.122;12.776;2023-03-14T00:05:06;321.77;;;68.93;;
31091;SDS011;67728;53.122;12.776;2023-03-14T00:06:39;319.25;;;69.20;;
31091;SDS011;67728;53.122;12.776;2023-03-14T00:08:11;321.95;;;70.70;;
31091;SDS011;67728;53.122;12.776;2023-03-14T00:09:43;322.60;;;71.95;;
31091;SDS011;67728;53.122;12.776;2023-03-14T00:11:17;322.33;;;70.78;;
31091;SDS011;67728;53.122;12.776;2023-03-14T00:12:50;319.98;;;69.82;;
31091;SDS011;67728;53.122;12.776;2023-03-14T00:14:22;323.00;;;72.32;;
31091;SDS011;67728;53.122;12.776;2023-03-14T00:15:54;323.20;;;73.88;;
31091;SDS011;67728;53.122;12.776;2023-03-14T00:17:26;327.63;;;75.18;;
31091;SDS011;67728;53.122;12.776;2023-03-14T00:18:58;326.02;;;74.90;;
31091;SDS011;67728;53.122;12.776;2023-03-14T00:20:30;322.77;;;72.30;;
31091;SDS011;67728;53.122;12.776;2023-03-14T00:22:01;327.38;;;75.55;;
31091;SDS011;67728;53.122;12.776;2023-03-14T00:23:33;322.42;;;73.10;;
31091;SDS011;67728;53.122;12.776;2023-03-14T00:25:07;321.00;;;73.57;;
31091;SDS011;67728;53.122;12.776;2023-03-14T00:26:41;325.52;;;74.95;;
31091;SDS011;67728;53.122;12.776;2023-03-14T00:28:13;324.13;;;71.65;;
31091;SDS011;67728;53.122;12.776;2023-03-14T00:29:45;323.70;;;74.95;;
31091;SDS011;67728;53.122;12.776;2023-03-14T00:31:16;323.40;;;71.70;;
31091;SDS011;67728;53.122;12.776;2023-03-14T00:32:48;325.20;;;72.22;;
31091;SDS011;67728;53.122;12.776;2023-03-14T00:34:20;322.05;;;70.65;;
31091;SDS011;67728;53.122;12.776;2023-03-14T00:35:53;322.48;;;70.18;;
31091;SDS011;67728;53.122;12.776;2023-03-14T00:37:25;322.85;;;70.82;;
31091;SDS011;67728;53.122;12.776;2023-03-14T00:38:56;322.40;;;68.70;;
31091;SDS011;67728;53.122;12.776;2023-03-14T00:40:28;321.35;;;68.63;;
31091;SDS011;67728;53.122;12.776;2023-03-14T00:42:02;320.42;;;68.85;;
31091;SDS011;67728;53.122;12.776;2023-03-14T00:43:34;319.67;;;68.78;;
31091;SDS011;67728;53.122;12.776;2023-03-14T00:45:06;325.55;;;69.05;;
31091;SDS011;67728;53.122;12.776;2023-03-14T00:46:38;319.40;;;69.35;;
31091;SDS011;67728;53.122;12.776;2023-03-14T00:48:10;324.67;;;68.95;;
31091;SDS011;67728;53.122;12.776;2023-03-14T00:49:41;320.08;;;66.78;;
31091;SDS011;67728;53.122;12.776;2023-03-14T00:51:13;321.67;;;69.03;;
31091;SDS011;67728;53.122;12.776;2023-03-14T00:52:46;323.67;;;68.20;;
31091;SDS011;67728;53.122;12.776;2023-03-14T00:54:18;320.02;;;67.30;;
31091;SDS011;67728;53.122;12.776;2023-03-14T00:55:50;322.70;;;69.13;;
31091;SDS011;67728;53.122;12.776;2023-03-14T00:57:25;320.45;;;68.50;;
31091;SDS011;67728;53.122;12.776;2023-03-14T00:58:56;321.38;;;68.05;;
31091;SDS011;67728;53.122;12.776;2023-03-14T01:00:28;318.65;;;66.28;;
31091;SDS011;67728;53.122;12.776;2023-03-14T01:02:00;320.73;;;68.47;;
31091;SDS011;67728;53.122;12.776;2023-03-14T01:03:32;320.17;;;66.85;;
31091;SDS011;67728;53.122;12.776;2023-03-14T01:05:04;320.90;;;66.97;;
31091;SDS011;67728;53.122;12.776;2023-03-14T01:06:37;320.42;;;67.88;;
31091;SDS011;67728;53.122;12.776;2023-03-14T01:08:10;320.52;;;67.80;;
31091;SDS011;67728;53.122;12.776;2023-03-14T01:09:42;319.48;;;67.30;;
31091;SDS011;67728;53.122;12.776;2023-03-14T01:11:15;320.27;;;67.82;;
31091;SDS011;67728;53.122;12.776;2023-03-14T01:12:50;321.33;;;67.68;;
31091;SDS011;67728;53.122;12.776;2023-03-14T01:14:22;319.25;;;67.68;;
31091;SDS011;67728;53.122;12.776;2023-03-14T01:15:54;322.80;;;72.28;;
31091;SDS011;67728;53.122;12.776;2023-03-14T01:17:25;320.60;;;70.47;;
31091;SDS011;67728;53.122;12.776;2023-03-14T01:18:57;320.65;;;70.30;;
31091;SDS011;67728;53.122;12.776;2023-03-14T01:20:29;321.58;;;71.05;;
31091;SDS011;67728;53.122;12.776;2023-03-14T01:22:01;321.63;;;71.35;;
31091;SDS011;67728;53.122;12.776;2023-03-14T01:23:33;321.10;;;71.20;;
31091;SDS011;67728;53.122;12.776;2023-03-14T01:25:06;320.65;;;69.70;;
31091;SDS011;67728;53.122;12.776;2023-03-14T01:26:38;320.83;;;71.07;;
31091;SDS011;67728;53.122;12.776;2023-03-14T01:28:12;321.80;;;71.53;;
31091;SDS011;67728;53.122;12.776;2023-03-14T01:29:43;320.17;;;71.53;;
31091;SDS011;67728;53.122;12.776;2023-03-14T01:31:17;319.42;;;70.93;;
31091;SDS011;67728;53.122;12.776;2023-03-14T01:32:49;324.67;;;73.43;;
31091;SDS011;67728;53.122;12.776;2023-03-14T01:34:20;323.30;;;72.47;;
31091;SDS011;67728;53.122;12.776;2023-03-14T01:35:51;319.05;;;70.32;;
31091;SDS011;67728;53.122;12.776;2023-03-14T01:37:23;318.83;;;69.90;;
31091;SDS011;67728;53.122;12.776;2023-03-14T01:38:55;318.00;;;69.35;;
31091;SDS011;67728;53.122;12.776;2023-03-14T01:40:27;320.05;;;70.57;;
31091;SDS011;67728;53.122;12.776;2023-03-14T01:41:57;321.25;;;70.60;;
31091;SDS011;67728;53.122;12.776;2023-03-14T01:43:30;319.80;;;69.40;;
31091;SDS011;67728;53.122;12.776;2023-03-14T01:45:03;319.60;;;68.15;;
31091;SDS011;67728;53.122;12.776;2023-03-14T01:46:38;320.83;;;69.53;;
31091;SDS011;67728;53.122;12.776;2023-03-14T01:48:12;317.92;;;66.68;;
31091;SDS011;67728;53.122;12.776;2023-03-14T01:49:43;318.55;;;68.38;;
31091;SDS011;67728;53.122;12.776;2023-03-14T01:51:17;321.33;;;69.65;;
31091;SDS011;67728;53.122;12.776;2023-03-14T01:52:51;325.27;;;70.60;;
31091;SDS011;67728;53.122;12.776;2023-03-14T01:54:25;320.30;;;68.25;;
31091;SDS011;67728;53.122;12.776;2023-03-14T01:55:58;318.73;;;68.50;;
31091;SDS011;67728;53.122;12.776;2023-03-14T01:57:31;318.85;;;68.45;;
31091;SDS011;67728;53.122;12.776;2023-03-14T01:59:08;320.63;;;68.50;;
31091;SDS011;67728;53.122;12.776;2023-03-14T02:00:41;317.73;;;67.38;;
31091;SDS011;67728;53.122;12.776;2023-03-14T02:02:13;319.08;;;67.45;;
31091;SDS011;67728;53.122;12.776;2023-03-14T02:03:47;317.30;;;66.35;;
31091;SDS011;67728;53.122;12.776;2023-03-14T02:05:25;316.02;;;65.53;;
31091;SDS011;67728;53.122;12.776;2023-03-14T02:07:00;316.33;;;66.75;;
31091;SDS011;67728;53.122;12.776;2023-03-14T02:08:36;317.85;;;66.43;;
31091;SDS011;67728;53.122;12.776;2023-03-14T02:10:09;317.80;;;66.80;;
31091;SDS011;67728;53.122;12.776;2023-03-14T02:11:41;318.00;;;67.10;;
31091;SDS011;67728;53.122;12.776;2023-03-14T02:13:14;318.95;;;68.65;;
31091;SDS011;67728;53.122;12.776;2023-03-14T02:14:49;316.33;;;65.63;;
31091;SDS011;67728;53.122;12.776;2023-03-14T02:16:21;318.00;;;66.85;;
31091;SDS011;67728;53.122;12.776;2023-03-14T02:17:52;316.55;;;66.82;;
31091;SDS011;67728;53.122;12.776;2023-03-14T02:19:27;319.15;;;68.10;;
31091;SDS011;67728;53.122;12.776;2023-03-14T02:21:09;321.25;;;67.50;;
31091;SDS011;67728;53.122;12.776;2023-03-14T02:22:45;319.65;;;67.38;;
31091;SDS011;67728;53.122;12.776;2023-03-14T02:24:17;320.13;;;68.88;;
31091;SDS011;67728;53.122;12.776;2023-03-14T02:25:58;319.95;;;69.25;;
31091;SDS011;67728;53.122;12.776;2023-03-14T02:27:38;319.73;;;68.93;;
31091;SDS011;67728;53.122;12.776;2023-03-14T02:29:10;322.52;;;68.53;;
31091;SDS011;67728;53.122;12.776;2023-03-14T02:30:43;318.65;;;66.97;;
31091;SDS011;67728;53.122;12.776;2023-03-14T02:32:15;318.30;;;66.65;;
31091;SDS011;67728;53.122;12.776;2023-03-14T02:33:49;318.83;;;68.07;;
31091;SDS011;67728;53.122;12.776;2023-03-14T02:35:23;318.40;;;68.43;;
31091;SDS011;67728;53.122;12.776;2023-03-14T02:36:57;317.58;;;66.43;;
31091;SDS011;67728;53.122;12.776;2023-03-14T02:38:33;318.48;;;67.50;;
31091;SDS011;67728;53.122;12.776;2023-03-14T02:40:09;319.25;;;68.20;;
31091;SDS011;67728;53.122;12.776;2023-03-14T02:41:41;316.27;;;67.38;;
31091;SDS011;67728;53.122;12.776;2023-03-14T02:43:16;320.58;;;69.22;;
31091;SDS011;67728;53.122;12.776;2023-03-14T02:44:49;321.70;;;69.15;;
31091;SDS011;67728;53.122;12.776;2023-03-14T02:46:22;318.23;;;68.55;;
31091;SDS011;67728;53.122;12.776;2023-03-14T02:47:54;317.05;;;67.95;;
31091;SDS011;67728;53.122;12.776;2023-03-14T02:49:28;317.55;;;67.32;;
31091;SDS011;67728;53.122;12.776;2023-03-14T02:51:03;322.73;;;69.85;;
31091;SDS011;67728;53.122;12.776;2023-03-14T02:52:36;320.02;;;69.22;;
31091;SDS011;67728;53.122;12.776;2023-03-14T02:54:07;319.65;;;68.43;;
31091;SDS011;67728;53.122;12.776;2023-03-14T02:55:39;319.58;;;68.75;;
31091;SDS011;67728;53.122;12.776;2023-03-14T02:57:11;320.60;;;68.10;;
31091;SDS011;67728;53.122;12.776;2023-03-14T02:58:44;317.63;;;67.72;;
31091;SDS011;67728;53.122;12.776;2023-03-14T03:00:15;318.48;;;67.35;;
31091;SDS011;67728;53.122;12.776;2023-03-14T03:01:47;318.52;;;66.45;;
31091;SDS011;67728;53.122;12.776;2023-03-14T03:03:20;320.33;;;65.65;;
31091;SDS011;67728;53.122;12.776;2023-03-14T03:04:51;323.65;;;67.57;;
31091;SDS011;67728;53.122;12.776;2023-03-14T03:06:22;315.90;;;66.20;;
31091;SDS011;67728;53.122;12.776;2023-03-14T03:07:54;318.65;;;67.75;;
31091;SDS011;67728;53.122;12.776;2023-03-14T03:09:27;317.40;;;66.65;;
31091;SDS011;67728;53.122;12.776;2023-03-14T03:10:58;318.60;;;67.22;;
31091;SDS011;67728;53.122;12.776;2023-03-14T03:12:30;319.05;;;68.25;;
31091;SDS011;67728;53.122;12.776;2023-03-14T03:14:04;320.08;;;67.43;;
31091;SDS011;67728;53.122;12.776;2023-03-14T03:15:35;316.20;;;66.25;;
31091;SDS011;67728;53.122;12.776;2023-03-14T03:17:07;321.73;;;68.75;;
31091;SDS011;67728;53.122;12.776;2023-03-14T03:18:39;320.45;;;68.38;;
31091;SDS011;67728;53.122;12.776;2023-03-14T03:20:11;320.90;;;67.93;;
31091;SDS011;67728;53.122;12.776;2023-03-14T03:21:42;317.65;;;67.43;;
31091;SDS011;67728;53.122;12.776;2023-03-14T03:23:13;317.80;;;66.47;;
31091;SDS011;67728;53.122;12.776;2023-03-14T03:24:45;319.33;;;66.43;;
31091;SDS011;67728;53.122;12.776;2023-03-14T03:26:17;317.77;;;67.32;;
31091;SDS011;67728;53.122;12.776;2023-03-14T03:27:49;317.98;;;67.22;;
31091;SDS011;67728;53.122;12.776;2023-03-14T03:29:21;317.15;;;65.90;;
31091;SDS011;67728;53.122;12.776;2023-03-14T03:30:53;317.55;;;67.80;;
31091;SDS011;67728;53.122;12.776;2023-03-14T03:32:25;319.55;;;69.13;;
31091;SDS011;67728;53.122;12.776;2023-03-14T03:33:57;318.50;;;68.63;;
31091;SDS011;67728;53.122;12.776;2023-03-14T03:35:29;317.02;;;68.07;;
31091;SDS011;67728;53.122;12.776;2023-03-14T03:37:00;320.08;;;68.68;;
31091;SDS011;67728;53.122;12.776;2023-03-14T03:38:32;321.00;;;67.70;;
31091;SDS011;67728;53.122;12.776;2023-03-14T03:40:04;317.35;;;66.60;;
31091;SDS011;67728;53.122;12.776;2023-03-14T03:41:37;319.58;;;68.35;;
31091;SDS011;67728;53.122;12.776;2023-03-14T03:43:09;322.83;;;69.03;;
31091;SDS011;67728;53.122;12.776;2023-03-14T03:44:41;323.13;;;68.78;;
31091;SDS011;67728;53.122;12.776;2023-03-14T03:46:13;317.52;;;66.38;;
31091;SDS011;67728;53.122;12.776;2023-03-14T03:47:44;314.40;;;63.90;;
31091;SDS011;67728;53.122;12.776;2023-03-14T03:49:15;316.90;;;66.60;;
31091;SDS011;67728;53.122;12.776;2023-03-14T03:50:47;316.27;;;66.00;;
31091;SDS011;67728;53.122;12.776;2023-03-14T03:52:19;316.40;;;66.45;;
31091;SDS011;67728;53.122;12.776;2023-03-14T03:53:52;315.67;;;65.18;;
31091;SDS011;67728;53.122;12.776;2023-03-14T03:55:24;315.90;;;65.75;;
31091;SDS011;67728;53.122;12.776;2023-03-14T03:56:58;314.80;;;64.68;;
31091;SDS011;67728;53.122;12.776;2023-03-14T03:58:29;316.50;;;65.60;;
31091;SDS011;67728;53.122;12.776;2023-03-14T04:00:04;317.33;;;65.85;;
31091;SDS011;67728;53.122;12.776;2023-03-14T04:01:39;318.55;;;66.47;;
31091;SDS011;67728;53.122;12.776;2023-03-14T04:03:11;317.52;;;66.60;;
31091;SDS011;67728;53.122;12.776;2023-03-14T04:04:42;318.92;;;67.32;;
31091;SDS011;67728;53.122;12.776;2023-03-14T04:06:14;316.23;;;67.20;;
31091;SDS011;67728;53.122;12.776;2023-03-14T04:07:46;318.80;;;67.85;;
31091;SDS011;67728;53.122;12.776;2023-03-14T04:09:18;315.98;;;66.18;;
31091;SDS011;67728;53.122;12.776;2023-03-14T04:10:53;316.08;;;66.35;;
31091;SDS011;67728;53.122;12.776;2023-03-14T04:12:26;316.80;;;66.30;;
31091;SDS011;67728;53.122;12.776;2023-03-14T04:13:58;315.83;;;65.65;;
31091;SDS011;67728;53.122;12.776;2023-03-14T04:15:31;316.02;;;65.20;;
31091;SDS011;67728;53.122;12.776;2023-03-14T04:17:02;322.30;;;67.55;;
31091;SDS011;67728;53.122;12.776;2023-03-14T04:18:34;320.33;;;66.10;;
31091;SDS011;67728;53.122;12.776;2023-03-14T04:20:07;317.75;;;66.22;;
31091;SDS011;67728;53.122;12.776;2023-03-14T04:21:41;317.17;;;65.78;;
31091;SDS011;67728;53.122;12.776;2023-03-14T04:23:14;317.58;;;66.18;;
31091;SDS011;67728;53.122;12.776;2023-03-14T04:24:46;317.70;;;65.70;;
31091;SDS011;67728;53.122;12.776;2023-03-14T04:26:18;314.20;;;65.35;;
31091;SDS011;67728;53.122;12.776;2023-03-14T04:27:49;316.33;;;66.78;;
31091;SDS011;67728;53.122;12.776;2023-03-14T04:29:21;314.55;;;64.85;;
31091;SDS011;67728;53.122;12.776;2023-03-14T04:30:54;317.15;;;65.50;;
31091;SDS011;67728;53.122;12.776;2023-03-14T04:32:26;315.25;;;66.30;;
31091;SDS011;67728;53.122;12.776;2023-03-14T04:33:58;315.38;;;66.03;;
31091;SDS011;67728;53.122;12.776;2023-03-14T04:35:30;316.88;;;66.65;;
31091;SDS011;67728;53.122;12.776;2023-03-14T04:37:02;315.88;;;66.00;;
31091;SDS011;67728;53.122;12.776;2023-03-14T04:38:34;317.35;;;66.75;;
31091;SDS011;67728;53.122;12.776;2023-03-14T04:40:05;317.65;;;65.30;;
31091;SDS011;67728;53.122;12.776;2023-03-14T04:41:38;316.65;;;64.90;;
31091;SDS011;67728;53.122;12.776;2023-03-14T04:43:10;319.45;;;66.43;;
31091;SDS011;67728;53.122;12.776;2023-03-14T04:44:42;323.85;;;66.45;;
31091;SDS011;67728;53.122;12.776;2023-03-14T04:46:18;317.38;;;66.38;;
31091;SDS011;67728;53.122;12.776;2023-03-14T04:47:50;316.13;;;65.63;;
31091;SDS011;67728;53.122;12.776;2023-03-14T04:49:20;336.20;;;68.60;;
31091;SDS011;67728;53.122;12.776;2023-03-14T04:50:52;318.52;;;65.82;;
31091;SDS011;67728;53.122;12.776;2023-03-14T04:52:25;315.00;;;64.85;;
31091;SDS011;67728;53.122;12.776;2023-03-14T04:53:57;319.55;;;66.25;;
31091;SDS011;67728;53.122;12.776;2023-03-14T04:55:28;316.73;;;65.03;;
31091;SDS011;67728;53.122;12.776;2023-03-14T04:57:00;316.02;;;65.80;;
31091;SDS011;67728;53.122;12.776;2023-03-14T04:58:32;318.75;;;65.72;;
31091;SDS011;67728;53.122;12.776;2023-03-14T05:00:04;316.88;;;65.80;;
31091;SDS011;67728;53.122;12.776;2023-03-14T05:01:39;316.27;;;65.43;;
31091;SDS011;67728;53.122;12.776;2023-03-14T05:03:11;318.58;;;66.70;;
31091;SDS011;67728;53.122;12.776;2023-03-14T05:04:43;320.85;;;66.72;;
31091;SDS011;67728;53.122;12.776;2023-03-14T05:06:15;317.42;;;66.78;;
31091;SDS011;67728;53.122;12.776;2023-03-14T05:07:46;317.95;;;67.25;;
31091;SDS011;67728;53.122;12.776;2023-03-14T05:09:18;316.55;;;65.55;;
31091;SDS011;67728;53.122;12.776;2023-03-14T05:10:51;317.05;;;66.10;;
31091;SDS011;67728;53.122;12.776;2023-03-14T05:12:22;316.13;;;65.93;;
31091;SDS011;67728;53.122;12.776;2023-03-14T05:13:54;322.80;;;66.90;;
31091;SDS011;67728;53.122;12.776;2023-03-14T05:15:26;318.85;;;66.68;;
31091;SDS011;67728;53.122;12.776;2023-03-14T05:16:59;316.17;;;65.68;;
31091;SDS011;67728;53.122;12.776;2023-03-14T05:18:31;315.27;;;66.38;;
31091;SDS011;67728;53.122;12.776;2023-03-14T05:20:01;319.55;;;67.15;;
31091;SDS011;67728;53.122;12.776;2023-03-14T05:21:38;319.35;;;66.22;;
31091;SDS011;67728;53.122;12.776;2023-03-14T05:23:09;320.90;;;66.80;;
31091;SDS011;67728;53.122;12.776;2023-03-14T05:24:41;318.83;;;66.13;;
31091;SDS011;67728;53.122;12.776;2023-03-14T05:26:12;318.02;;;66.80;;
31091;SDS011;67728;53.122;12.776;2023-03-14T05:27:43;319.05;;;67.03;;
31091;SDS011;67728;53.122;12.776;2023-03-14T05:29:15;317.35;;;66.88;;
31091;SDS011;67728;53.122;12.776;2023-03-14T05:30:47;314.67;;;66.43;;
31091;SDS011;67728;53.122;12.776;2023-03-14T05:32:20;317.42;;;66.43;;
31091;SDS011;67728;53.122;12.776;2023-03-14T05:33:52;315.92;;;67.00;;
31091;SDS011;67728;53.122;12.776;2023-03-14T05:35:24;315.30;;;65.47;;
31091;SDS011;67728;53.122;12.776;2023-03-14T05:36:54;316.17;;;66.07;;
31091;SDS011;67728;53.122;12.776;2023-03-14T05:38:26;315.92;;;65.93;;
31091;SDS011;67728;53.122;12.776;2023-03-14T05:39:58;317.27;;;65.95;;
31091;SDS011;67728;53.122;12.776;2023-03-14T05:41:28;315.50;;;66.22;;
31091;SDS011;67728;53.122;12.776;2023-03-14T05:43:00;317.95;;;66.70;;
31091;SDS011;67728;53.122;12.776;2023-03-14T05:44:32;320.77;;;67.88;;
31091;SDS011;67728;53.122;12.776;2023-03-14T05:46:04;316.35;;;65.65;;
31091;SDS011;67728;53.122;12.776;2023-03-14T05:47:38;316.50;;;66.35;;
31091;SDS011;67728;53.122;12.776;2023-03-14T05:49:08;319.63;;;66.32;;
31091;SDS011;67728;53.122;12.776;2023-03-14T05:50:40;317.55;;;66.72;;
31091;SDS011;67728;53.122;12.776;2023-03-14T05:52:12;318.40;;;66.70;;
31091;SDS011;67728;53.122;12.776;2023-03-14T05:53:44;317.85;;;66.57;;
31091;SDS011;67728;53.122;12.776;2023-03-14T05:55:15;315.38;;;64.68;;
31091;SDS011;67728;53.122;12.776;2023-03-14T05:56:47;317.15;;;65.47;;
31091;SDS011;67728;53.122;12.776;2023-03-14T05:58:19;319.05;;;66.43;;
31091;SDS011;67728;53.122;12.776;2023-03-14T05:59:51;316.60;;;66.25;;
31091;SDS011;67728;53.122;12.776;2023-03-14T06:01:22;317.92;;;67.97;;
31091;SDS011;67728;53.122;12.776;2023-03-14T06:02:55;316.08;;;65.35;;
31091;SDS011;67728;53.122;12.776;2023-03-14T06:04:27;315.73;;;65.55;;
31091;SDS011;67728;53.122;12.776;2023-03-14T06:05:59;317.48;;;65.72;;
31091;SDS011;67728;53.122;12.776;2023-03-14T06:07:31;316.13;;;65.38;;
31091;SDS011;67728;53.122;12.776;2023-03-14T06:09:01;316.63;;;66.05;;
31091;SDS011;67728;53.122;12.776;2023-03-14T06:10:34;319.35;;;67.57;;
31091;SDS011;67728;53.122;12.776;2023-03-14T06:12:06;320.08;;;68.38;;
31091;SDS011;67728;53.122;12.776;2023-03-14T06:13:38;316.52;;;65.93;;
31091;SDS011;67728;53.122;12.776;2023-03-14T06:15:10;319.38;;;67.00;;
31091;SDS011;67728;53.122;12.776;2023-03-14T06:16:42;320.30;;;67.13;;
31091;SDS011;67728;53.122;12.776;2023-03-14T06:18:15;319.35;;;67.07;;
31091;SDS011;67728;53.122;12.776;2023-03-14T06:19:46;317.17;;;66.18;;
31091;SDS011;67728;53.122;12.776;2023-03-14T06:21:18;317.17;;;66.82;;
31091;SDS011;67728;53.122;12.776;2023-03-14T06:22:50;315.85;;;66.38;;
31091;SDS011;67728;53.122;12.776;2023-03-14T06:24:22;318.58;;;65.68;;
31091;SDS011;67728;53.122;12.776;2023-03-14T06:25:53;315.38;;;66.47;;
31091;SDS011;67728;53.122;12.776;2023-03-14T06:27:24;314.98;;;66.25;;
31091;SDS011;67728;53.122;12.776;2023-03-14T06:28:56;316.90;;;66.60;;
31091;SDS011;67728;53.122;12.776;2023-03-14T06:30:31;315.83;;;65.80;;
31091;SDS011;67728;53.122;12.776;2023-03-14T06:32:03;318.90;;;67.35;;
31091;SDS011;67728;53.122;12.776;2023-03-14T06:33:36;319.08;;;67.30;;
31091;SDS011;67728;53.122;12.776;2023-03-14T06:35:08;318.92;;;66.95;;
31091;SDS011;67728;53.122;12.776;2023-03-14T06:36:39;316.20;;;66.80;;
31091;SDS011;67728;53.122;12.776;2023-03-14T06:38:11;318.27;;;67.43;;
31091;SDS011;67728;53.122;12.776;2023-03-14T06:39:43;317.33;;;67.85;;
31091;SDS011;67728;53.122;12.776;2023-03-14T06:41:15;318.80;;;69.70;;
31091;SDS011;67728;53.122;12.776;2023-03-14T06:42:47;318.90;;;69.18;;
31091;SDS011;67728;53.122;12.776;2023-03-14T06:44:18;320.92;;;69.32;;
31091;SDS011;67728;53.122;12.776;2023-03-14T06:45:50;319.02;;;70.45;;
31091;SDS011;67728;53.122;12.776;2023-03-14T06:47:22;319.05;;;70.20;;
31091;SDS011;67728;53.122;12.776;2023-03-14T06:48:55;317.67;;;69.28;;
31091;SDS011;67728;53.122;12.776;2023-03-14T06:50:27;320.25;;;68.45;;
31091;SDS011;67728;53.122;12.776;2023-03-14T06:51:58;320.55;;;69.80;;
31091;SDS011;67728;53.122;12.776;2023-03-14T06:53:30;322.10;;;69.18;;
31091;SDS011;67728;53.122;12.776;2023-03-14T06:55:02;320.05;;;69.38;;
31091;SDS011;67728;53.122;12.776;2023-03-14T06:56:34;320.55;;;69.63;;
31091;SDS011;67728;53.122;12.776;2023-03-14T06:58:06;331.30;;;71.32;;
31091;SDS011;67728;53.122;12.776;2023-03-14T06:59:38;316.42;;;66.85;;
31091;SDS011;67728;53.122;12.776;2023-03-14T07:01:15;318.63;;;68.47;;
31091;SDS011;67728;53.122;12.776;2023-03-14T07:02:52;321.23;;;69.75;;
31091;SDS011;67728;53.122;12.776;2023-03-14T07:04:25;319.35;;;68.93;;
31091;SDS011;67728;53.122;12.776;2023-03-14T07:05:57;319.42;;;69.53;;
31091;SDS011;67728;53.122;12.776;2023-03-14T07:07:29;319.20;;;70.57;;
31091;SDS011;67728;53.122;12.776;2023-03-14T07:09:01;320.00;;;70.05;;
31091;SDS011;67728;53.122;12.776;2023-03-14T07:10:33;322.45;;;71.10;;
31091;SDS011;67728;53.122;12.776;2023-03-14T07:12:05;322.83;;;71.80;;
31091;SDS011;67728;53.122;12.776;2023-03-14T07:13:37;318.30;;;68.57;;
31091;SDS011;67728;53.122;12.776;2023-03-14T07:15:10;320.52;;;69.70;;
31091;SDS011;67728;53.122;12.776;2023-03-14T07:16:42;319.58;;;69.63;;
31091;SDS011;67728;53.122;12.776;2023-03-14T07:18:15;317.92;;;68.95;;
31091;SDS011;67728;53.122;12.776;2023-03-14T07:19:48;320.10;;;70.43;;
31091;SDS011;67728;53.122;12.776;2023-03-14T07:21:20;320.50;;;71.28;;
31091;SDS011;67728;53.122;12.776;2023-03-14T07:22:52;318.17;;;69.43;;
31091;SDS011;67728;53.122;12.776;2023-03-14T07:24:24;318.45;;;69.55;;
31091;SDS011;67728;53.122;12.776;2023-03-14T07:25:56;318.25;;;67.30;;
31091;SDS011;67728;53.122;12.776;2023-03-14T07:27:27;321.88;;;69.80;;
31091;SDS011;67728;53.122;12.776;2023-03-14T07:28:59;319.60;;;70.72;;
31091;SDS011;67728;53.122;12.776;2023-03-14T07:30:33;319.67;;;70.13;;
31091;SDS011;67728;53.122;12.776;2023-03-14T07:32:05;327.77;;;70.85;;
31091;SDS011;67728;53.122;12.776;2023-03-14T07:33:38;323.05;;;70.25;;
31091;SDS011;67728;53.122;12.776;2023-03-14T07:35:12;320.58;;;69.97;;
31091;SDS011;67728;53.122;12.776;2023-03-14T07:36:44;325.08;;;70.97;;
31091;SDS011;67728;53.122;12.776;2023-03-14T07:38:15;320.83;;;69.75;;
31091;SDS011;67728;53.122;12.776;2023-03-14T07:39:48;322.08;;;70.95;;
31091;SDS011;67728;53.122;12.776;2023-03-14T07:41:18;323.50;;;69.20;;
31091;SDS011;67728;53.122;12.776;2023-03-14T07:42:51;322.50;;;71.75;;
31091;SDS011;67728;53.122;12.776;2023-03-14T07:44:25;322.05;;;70.80;;
31091;SDS011;67728;53.122;12.776;2023-03-14T07:45:57;323.70;;;71.03;;
31091;SDS011;67728;53.122;12.776;2023-03-14T07:47:29;322.05;;;71.07;;
31091;SDS011;67728;53.122;12.776;2023-03-14T07:49:00;323.88;;;73.05;;
31091;SDS011;67728;53.122;12.776;2023-03-14T07:50:33;320.85;;;71.95;;
31091;SDS011;67728;53.122;12.776;2023-03-14T07:52:06;326.85;;;72.03;;
31091;SDS011;67728;53.122;12.776;2023-03-14T07:53:37;323.23;;;72.15;;
31091;SDS011;67728;53.122;12.776;2023-03-14T07:55:10;322.55;;;71.47;;
31091;SDS011;67728;53.122;12.776;2023-03-14T07:56:44;331.13;;;75.07;;
31091;SDS011;67728;53.122;12.776;2023-03-14T07:58:15;321.70;;;71.78;;
31091;SDS011;67728;53.122;12.776;2023-03-14T07:59:47;325.92;;;78.43;;
31091;SDS011;67728;53.122;12.776;2023-03-14T08:01:19;326.27;;;79.43;;
31091;SDS011;67728;53.122;12.776;2023-03-14T08:02:51;327.75;;;81.97;;
31091;SDS011;67728;53.122;12.776;2023-03-14T08:04:23;326.25;;;79.28;;
31091;SDS011;67728;53.122;12.776;2023-03-14T08:05:57;326.58;;;80.68;;
31091;SDS011;67728;53.122;12.776;2023-03-14T08:07:29;326.48;;;80.30;;
31091;SDS011;67728;53.122;12.776;2023-03-14T08:09:01;327.13;;;81.53;;
31091;SDS011;67728;53.122;12.776;2023-03-14T08:10:32;325.83;;;81.20;;
31091;SDS011;67728;53.122;12.776;2023-03-14T08:12:05;327.25;;;80.82;;
31091;SDS011;67728;53.122;12.776;2023-03-14T08:13:37;328.00;;;84.30;;
31091;SDS011;67728;53.122;12.776;2023-03-14T08:15:09;329.42;;;78.95;;
31091;SDS011;67728;53.122;12.776;2023-03-14T08:16:41;325.58;;;80.95;;
31091;SDS011;67728;53.122;12.776;2023-03-14T08:18:13;328.60;;;83.00;;
31091;SDS011;67728;53.122;12.776;2023-03-14T08:19:45;325.98;;;79.95;;
31091;SDS011;67728;53.122;12.776;2023-03-14T08:21:19;326.83;;;80.30;;
31091;SDS011;67728;53.122;12.776;2023-03-14T08:22:50;327.52;;;80.55;;
31091;SDS011;67728;53.122;12.776;2023-03-14T08:24:23;346.27;;;102.72;;
31091;SDS011;67728;53.122;12.776;2023-03-14T08:25:56;328.55;;;87.10;;
31091;SDS011;67728;53.122;12.776;2023-03-14T08:27:28;328.27;;;82.85;;
31091;SDS011;67728;53.122;12.776;2023-03-14T08:29:00;327.55;;;81.93;;
31091;SDS011;67728;53.122;12.776;2023-03-14T08:30:33;326.83;;;81.38;;
31091;SDS011;67728;53.122;12.776;2023-03-14T08:32:04;327.52;;;80.53;;
31091;SDS011;67728;53.122;12.776;2023-03-14T08:33:37;330.98;;;83.47;;
31091;SDS011;67728;53.122;12.776;2023-03-14T08:35:08;329.65;;;82.72;;
31091;SDS011;67728;53.122;12.776;2023-03-14T08:36:43;328.63;;;82.60;;
31091;SDS011;67728;53.122;12.776;2023-03-14T08:38:14;331.88;;;82.93;;
31091;SDS011;67728;53.122;12.776;2023-03-14T08:39:46;329.02;;;81.45;;
31091;SDS011;67728;53.122;12.776;2023-03-14T08:41:19;325.67;;;80.95;;
31091;SDS011;67728;53.122;12.776;2023-03-14T08:42:51;331.23;;;81.85;;
31091;SDS011;67728;53.122;12.776;2023-03-14T08:44:22;332.25;;;78.07;;